Nearby METAR Reports

 

KSJC - San Jose, California, USA
Distance from station: NE 9mi, 14km
Updated: Mon, 04-23-2018 6:53pm CDT
Mostly cloudy
Mostly cloudy
 Wind from WNW
Wind: WNW 15 mph , 24 km/h
Temperature: 75°F , 24°C
Dew Point: 57°F , 14°C
Humidity: 54%
Barometer: 29.92 inHg , 1013.2 hPa
Clouds: Mostly cloudy
Visibility: 10 miles , 16 km
Cloud details: Few Clouds 3500 ft
Partly cloudy 7000 ft
Mostly cloudy 10000 ft
2018/04/23 23:53 KSJC 232353Z 30013KT 10SM FEW035 SCT070 BKN100 24/14 A2992 RMK AO2 SLP131 T02440139 10289 20217 56008
KNUQ - Moffett Nas/Mtn, California, USA
Distance from station: N 9mi, 14km
Updated: Mon, 04-23-2018 6:56pm CDT
Clear
Clear
 Wind from NNW
Wind: NNW 14 mph , 22 km/h
Temperature: 72°F , 22°C
Dew Point: 55°F , 13°C
Humidity: 57%
Barometer: 29.93 inHg , 1013.5 hPa
Clouds: Clear
Visibility: 10 miles , 16 km
2018/04/23 23:56 KNUQ 232356Z 34012KT 10SM CLR 22/13 A2993 RMK AO2 SLP139 T02170128 10261 20200 56009
 
KPAO - Palo Alto, California, USA
Distance from station: NNW 14mi, 23km
Updated: Mon, 04-23-2018 6:47pm CDT
Partly cloudy
Partly cloudy
 Wind from NNW
Wind: NNW 16 mph , 26 km/h
Barometer: 29.93 inHg , 1013.5 hPa
Clouds: Partly cloudy
Visibility: 10 miles , 16 km
Cloud details: Partly cloudy 18000 ft
2018/04/23 23:47 KPAO 232347Z 33014KT 10SM SCT180 A2993
KRHV - San Jose/Reid, California, USA
Distance from station: ENE 12mi, 19km
Updated: Mon, 04-23-2018 6:47pm CDT
Few Clouds
Few Clouds
 Wind from NNW
Wind: NNW 13 mph , 20 km/h
Temperature: 81°F , 27°C
Dew Point: 54°F , 12°C
Humidity: 39%
Barometer: 29.90 inHg , 1012.5 hPa
Clouds: Few Clouds
Visibility: 10 miles , 16 km
Cloud details: Few Clouds 20000 ft
2018/04/23 23:47 KRHV 232347Z 33011KT 10SM FEW200 27/12 A2990
 
KOAK - Oakland, California, USA
Distance from station: NNW 31mi, 50km
Updated: Mon, 04-23-2018 6:53pm CDT
Mostly cloudy
Mostly cloudy
 Wind from WNW
Wind: WNW 18 mph , 30 km/h
Temperature: 66°F , 19°C
Dew Point: 54°F , 12°C
Humidity: 64%
Barometer: 29.96 inHg , 1014.6 hPa
Clouds: Mostly cloudy
Visibility: 10 miles , 16 km
Cloud details: Few Clouds 1400 ft
Mostly cloudy 20000 ft
2018/04/23 23:53 KOAK 232353Z 29016KT 10SM FEW014 BKN200 19/12 A2996 RMK AO2 SLP144 T01890117 10233 20172 56008
KSQL - San Carlos Airpo, California, USA
Distance from station: NW 21mi, 34km
Updated: Mon, 04-23-2018 6:48pm CDT
Few Clouds
Few Clouds
 Wind from W
Wind: W 13 mph , 20 km/h
Temperature: 73°F , 23°C
Dew Point: 52°F , 11°C
Humidity: 47%
Barometer: 29.94 inHg , 1013.9 hPa
Clouds: Few Clouds
Visibility: 8 miles , 13 km
Cloud details: Few Clouds 18000 ft
2018/04/23 23:48 KSQL 232348Z 28011KT 8SM FEW180 23/11 A2994
 
KSFO - San Francisco, California, USA
Distance from station: NW 30mi, 49km
Updated: Mon, 04-23-2018 6:56pm CDT
Mostly cloudy
Mostly cloudy
 Wind from WNW
Wind: WNW 21 mph , 33 km/h
Temperature: 64°F , 18°C
Dew Point: 52°F , 11°C
Humidity: 64%
Barometer: 29.94 inHg , 1013.9 hPa
Clouds: Mostly cloudy
Visibility: 10 miles , 16 km
Cloud details: Few Clouds 4800 ft
Mostly cloudy 20000 ft
2018/04/23 23:56 KSFO 232356Z 29018KT 10SM FEW048 BKN200 18/11 A2994 RMK AO2 PK WND 29026/2326 SLP139 T01830106 10233 20178 56010
KE16 - San Martin, California, USA
Distance from station: ESE 27mi, 43km
Updated: Mon, 04-23-2018 7:15pm CDT
Clear
Clear
 Wind from SE
Wind: SE 12 mph , 19 km/h
Temperature: 72°F , 22°C
Dew Point: 48°F , 9°C
Humidity: 44%
Barometer: 29.95 inHg , 1014.2 hPa
Clouds: Clear
Visibility: 10 miles , 16 km
2018/04/24 00:15 KE16 240015Z AUTO 13010KT 10SM CLR 22/09 A2995 RMK AO2
 
KWVI - Watsonville, California, USA
Distance from station: SSE 27mi, 44km
Updated: Mon, 04-23-2018 6:53pm CDT
Haze, Clear
Haze, Clear
 Wind from SSW
Wind: SSW 9 mph , 15 km/h
Temperature: 59°F , 15°C
Dew Point: 52°F , 11°C
Humidity: 77%
Barometer: 30.00 inHg , 1015.9 hPa
Summary: Haze
Clouds: Clear
Visibility: 6 miles , 10 km
2018/04/23 23:53 KWVI 232353Z AUTO 21008KT 6SM HZ CLR 15/11 A3000 RMK AO2 SLP157 T01500111 10178 20144 58009
KHAF - Half Moon Bay, California, USA
Distance from station: WNW 31mi, 50km
Updated: Mon, 04-23-2018 7:20pm CDT
Mist, Overcast
Mist, Overcast
 Wind from SW
Wind: SW 7 mph , 11 km/h
Temperature: 55°F , 13°C
Dew Point: 50°F , 10°C
Humidity: 82%
Barometer: 30.01 inHg , 1016.3 hPa
Summary: Mist
Clouds: Overcast
Visibility: 3 miles , 5 km
Cloud details: Overcast 900 ft
2018/04/24 00:20 KHAF 240020Z AUTO 22006KT 3SM BR OVC009 13/10 A3001 RMK AO2
 
KHWD - Hayward, California, USA
Distance from station: N 28mi, 44km
Updated: Mon, 04-23-2018 6:54pm CDT
Clear
Clear
 Wind from WNW
Wind: WNW 14 mph , 22 km/h
Temperature: 72°F , 22°C
Dew Point: 52°F , 11°C
Humidity: 50%
Barometer: 29.94 inHg , 1013.9 hPa
Clouds: Clear
Visibility: 10 miles , 16 km
2018/04/23 23:54 KHWD 232354Z 30012KT 10SM CLR 22/11 A2994 RMK AO2 SLP147 T02170111 10250 20194 56009
KLVK - Livermore, California, USA
Distance from station: NNE 31mi, 51km
Updated: Mon, 04-23-2018 6:53pm CDT
Clear
Clear
 Wind from varies
Wind: varies 3 mph , 6 km/h
Temperature: 82°F , 28°C
Dew Point: 54°F , 12°C
Humidity: 37%
Barometer: 29.91 inHg , 1012.9 hPa
Clouds: Clear
Visibility: 10 miles , 16 km
2018/04/23 23:53 KLVK 232353Z VRB03KT 10SM CLR 28/12 A2991 RMK AO2 SLP125 T02830122 10294 20228 56016